createdAt,value
2018-02-23T00:01:07.399Z,1014.2
2018-02-23T00:02:17.129Z,1014.12
2018-02-23T00:03:26.880Z,1014.11
2018-02-23T00:04:35.537Z,1014.06
2018-02-23T00:05:45.261Z,1014.07
2018-02-23T00:06:55.353Z,1014.07
2018-02-23T00:08:05.360Z,1014.08
2018-02-23T00:09:14.625Z,1014.01
2018-02-23T00:10:24.410Z,1014.08
2018-02-23T00:11:35.351Z,1014.04
2018-02-23T00:12:45.381Z,1014.04
2018-02-23T00:13:55.557Z,1014.09
2018-02-23T00:15:04.836Z,1014.09
2018-02-23T00:16:14.894Z,1014.12
2018-02-23T00:17:24.385Z,1014.04
2018-02-23T00:18:34.253Z,1014.07
2018-02-23T00:19:43.715Z,1014.08
2018-02-23T00:20:53.439Z,1014.04
2018-02-23T00:22:02.886Z,1014.05
2018-02-23T00:23:12.611Z,1014.03
2018-02-23T00:24:22.438Z,1014
2018-02-23T00:25:32.310Z,1014.05
2018-02-23T00:26:42.071Z,1014.04
2018-02-23T00:27:51.793Z,1014.04
2018-02-23T00:29:01.527Z,1013.96
2018-02-23T00:30:11.382Z,1013.97
2018-02-23T00:31:21.137Z,1014.04
2018-02-23T00:32:30.692Z,1014.06
2018-02-23T00:33:39.705Z,1014.04
2018-02-23T00:34:49.703Z,1014.02
2018-02-23T00:35:59.861Z,1014.03
2018-02-23T00:37:09.342Z,1014.09
2018-02-23T00:38:19.294Z,1014.04
2018-02-23T00:39:29.495Z,1014.08
2018-02-23T00:40:39.292Z,1014.07
2018-02-23T00:41:49.581Z,1014.06
2018-02-23T00:42:58.995Z,1014.08
2018-02-23T00:44:08.764Z,1014.14
2018-02-23T00:45:18.500Z,1014.09
2018-02-23T00:46:28.486Z,1014.12
2018-02-23T00:47:38.596Z,1014.12
2018-02-23T00:48:49.038Z,1014.14
2018-02-23T00:49:58.261Z,1014.2
2018-02-23T00:51:07.710Z,1014.18
2018-02-23T00:52:17.228Z,1014.19
2018-02-23T00:53:26.975Z,1014.18
2018-02-23T00:54:36.443Z,1014.18
2018-02-23T00:55:45.629Z,1014.21
2018-02-23T00:56:55.337Z,1014.21
2018-02-23T00:58:04.803Z,1014.22
2018-02-23T00:59:14.301Z,1014.19
2018-02-23T01:00:23.808Z,1014.19
2018-02-23T01:01:33.815Z,1014.18
2018-02-23T01:02:43.792Z,1014.15
2018-02-23T01:03:52.981Z,1014.19
2018-02-23T01:05:02.704Z,1014.23
2018-02-23T01:06:12.009Z,1014.2
2018-02-23T01:07:21.727Z,1014.19
2018-02-23T01:08:31.439Z,1014.14
2018-02-23T01:09:41.484Z,1014.16
2018-02-23T01:10:51.509Z,1014.17
2018-02-23T01:12:00.965Z,1014.18
2018-02-23T01:13:10.688Z,1014.19
2018-02-23T01:14:20.152Z,1014.16
2018-02-23T01:15:29.871Z,1014.13
2018-02-23T01:16:39.659Z,1014.09
2018-02-23T01:17:49.116Z,1014.05
2018-02-23T01:18:59.095Z,1014.08
2018-02-23T01:20:08.641Z,1014.06
2018-02-23T01:21:18.097Z,1014.02
2018-02-23T01:22:27.806Z,1014.05
2018-02-23T01:23:37.254Z,1014.09
2018-02-23T01:24:46.973Z,1014.09
2018-02-23T01:25:55.886Z,1014.07
2018-02-23T01:27:05.351Z,1014.08
2018-02-23T01:28:14.805Z,1014.03
2018-02-23T01:29:24.786Z,1014.03
2018-02-23T01:30:33.983Z,1013.99
2018-02-23T01:31:43.972Z,1014
2018-02-23T01:32:53.954Z,1013.97
2018-02-23T01:34:03.940Z,1014
2018-02-23T01:35:13.645Z,1013.96
2018-02-23T01:36:23.373Z,1013.9
2018-02-23T01:37:33.478Z,1013.93
2018-02-23T01:38:43.194Z,1013.95
2018-02-23T01:39:52.647Z,1013.96
2018-02-23T01:41:02.377Z,1013.93
2018-02-23T01:42:11.831Z,1013.96
2018-02-23T01:43:21.018Z,1013.94
2018-02-23T01:44:30.737Z,1013.92
2018-02-23T01:45:40.509Z,1013.92
2018-02-23T01:46:50.497Z,1013.86
2018-02-23T01:47:59.973Z,1013.89
2018-02-23T01:49:09.702Z,1013.88
2018-02-23T01:50:18.884Z,1013.86
2018-02-23T01:51:28.863Z,1013.88
2018-02-23T01:52:38.847Z,1013.87
2018-02-23T01:53:48.831Z,1013.85
2018-02-23T01:54:58.544Z,1013.82
2018-02-23T01:56:07.725Z,1013.8
2018-02-23T01:57:17.499Z,1013.78
2018-02-23T01:58:27.215Z,1013.83
2018-02-23T01:59:37.201Z,1013.84
2018-02-23T02:00:46.915Z,1013.82
2018-02-23T02:01:56.896Z,1013.82
2018-02-23T02:03:06.174Z,1013.8
2018-02-23T02:04:15.890Z,1013.76
2018-02-23T02:05:25.603Z,1013.77
2018-02-23T02:06:35.598Z,1013.79
2018-02-23T02:07:45.335Z,1013.74
2018-02-23T02:08:54.800Z,1013.76
2018-02-23T02:10:04.523Z,1013.75
2018-02-23T02:11:14.508Z,1013.74
2018-02-23T02:12:24.232Z,1013.74
2018-02-23T02:13:34.221Z,1013.7
2018-02-23T02:14:43.667Z,1013.68
2018-02-23T02:15:53.384Z,1013.67
2018-02-23T02:17:02.830Z,1013.69
2018-02-23T02:18:12.290Z,1013.7
2018-02-23T02:19:22.292Z,1013.73
2018-02-23T02:20:32.279Z,1013.68
2018-02-23T02:21:42.006Z,1013.69
2018-02-23T02:22:51.986Z,1013.73
2018-02-23T02:24:01.969Z,1013.74
2018-02-23T02:25:11.951Z,1013.73
2018-02-23T02:26:21.933Z,1013.71
2018-02-23T02:27:31.942Z,1013.69
2018-02-23T02:28:41.410Z,1013.66
2018-02-23T02:29:50.600Z,1013.66
2018-02-23T02:31:00.319Z,1013.69
2018-02-23T02:32:10.306Z,1013.69
2018-02-23T02:33:20.023Z,1013.66
2018-02-23T02:34:29.486Z,1013.67
2018-02-23T02:35:39.484Z,1013.59
2018-02-23T02:36:49.213Z,1013.62
2018-02-23T02:37:59.218Z,1013.66
2018-02-23T02:39:08.705Z,1013.61
2018-02-23T02:40:17.893Z,1013.65
2018-02-23T02:41:27.883Z,1013.62
2018-02-23T02:42:37.873Z,1013.64
2018-02-23T02:43:47.340Z,1013.63
2018-02-23T02:44:57.067Z,1013.62
2018-02-23T02:46:07.122Z,1013.62
2018-02-23T02:47:16.856Z,1013.66
2018-02-23T02:48:26.713Z,1013.65
2018-02-23T02:49:36.448Z,1013.64
2018-02-23T02:50:46.460Z,1013.57
2018-02-23T02:51:55.918Z,1013.64
2018-02-23T02:53:05.372Z,1013.63
2018-02-23T02:54:15.393Z,1013.64
2018-02-23T02:55:25.130Z,1013.63
2018-02-23T02:56:34.599Z,1013.64
2018-02-23T02:57:44.589Z,1013.58
2018-02-23T02:58:54.573Z,1013.57
2018-02-23T03:00:04.355Z,1013.57
2018-02-23T03:01:14.082Z,1013.59
2018-02-23T03:02:23.821Z,1013.63
2018-02-23T03:03:33.876Z,1013.59
2018-02-23T03:04:43.343Z,1013.59
2018-02-23T03:05:53.075Z,1013.55
2018-02-23T03:07:02.810Z,1013.55
2018-02-23T03:08:12.534Z,1013.55
2018-02-23T03:09:22.262Z,1013.54
2018-02-23T03:10:31.976Z,1013.53
2018-02-23T03:11:41.959Z,1013.52
2018-02-23T03:12:51.876Z,1013.5
2018-02-23T03:14:01.063Z,1013.49
2018-02-23T03:15:10.797Z,1013.52
2018-02-23T03:16:20.886Z,1013.49
2018-02-23T03:17:30.616Z,1013.53
2018-02-23T03:18:40.354Z,1013.53
2018-02-23T03:19:50.356Z,1013.53
2018-02-23T03:21:00.085Z,1013.52
2018-02-23T03:22:09.837Z,1013.54
2018-02-23T03:23:19.569Z,1013.52
2018-02-23T03:24:29.556Z,1013.52
2018-02-23T03:25:39.576Z,1013.5
2018-02-23T03:26:49.343Z,1013.53
2018-02-23T03:27:59.417Z,1013.5
2018-02-23T03:29:09.446Z,1013.53
2018-02-23T03:30:18.916Z,1013.51
2018-02-23T03:31:28.691Z,1013.53
2018-02-23T03:32:38.444Z,1013.55
2018-02-23T03:33:48.163Z,1013.58
2018-02-23T03:34:58.157Z,1013.6
2018-02-23T03:36:07.345Z,1013.55
2018-02-23T03:37:17.366Z,1013.56
2018-02-23T03:38:26.823Z,1013.56
2018-02-23T03:39:36.286Z,1013.5
2018-02-23T03:40:45.750Z,1013.5
2018-02-23T03:41:55.759Z,1013.5
2018-02-23T03:43:05.477Z,1013.49
2018-02-23T03:44:15.466Z,1013.51
2018-02-23T03:45:25.188Z,1013.54
2018-02-23T03:46:34.915Z,1013.55
2018-02-23T03:47:44.371Z,1013.58
2018-02-23T03:48:54.380Z,1013.57
2018-02-23T03:50:04.368Z,1013.57
2018-02-23T03:51:14.355Z,1013.58
2018-02-23T03:52:24.339Z,1013.58
2018-02-23T03:53:33.794Z,1013.56
2018-02-23T03:54:42.984Z,1013.55
2018-02-23T03:55:52.435Z,1013.55
2018-02-23T03:57:02.155Z,1013.52
2018-02-23T03:58:12.153Z,1013.53
2018-02-23T03:59:21.870Z,1013.52
2018-02-23T04:00:31.320Z,1013.53
2018-02-23T04:01:41.036Z,1013.56
2018-02-23T04:02:51.032Z,1013.5
2018-02-23T04:04:01.020Z,1013.5
2018-02-23T04:05:10.743Z,1013.54
2018-02-23T04:06:20.842Z,1013.54
2018-02-23T04:07:30.366Z,1013.53
2018-02-23T04:08:39.562Z,1013.51
2018-02-23T04:09:49.283Z,1013.49
2018-02-23T04:10:59.015Z,1013.53
2018-02-23T04:12:08.492Z,1013.44
2018-02-23T04:13:18.232Z,1013.46
2018-02-23T04:14:27.708Z,1013.5
2018-02-23T04:15:37.733Z,1013.44
2018-02-23T04:16:47.180Z,1013.48
2018-02-23T04:17:56.632Z,1013.47
2018-02-23T04:19:06.089Z,1013.42
2018-02-23T04:20:15.804Z,1013.45
2018-02-23T04:21:25.790Z,1013.5
2018-02-23T04:22:35.251Z,1013.41
2018-02-23T04:23:45.241Z,1013.47
2018-02-23T04:24:54.954Z,1013.5
2018-02-23T04:26:04.937Z,1013.5
2018-02-23T04:27:14.437Z,1013.51
2018-02-23T04:28:24.164Z,1013.56
2018-02-23T04:29:33.892Z,1013.56
2018-02-23T04:30:43.625Z,1013.53
2018-02-23T04:31:53.392Z,1013.58
2018-02-23T04:33:02.866Z,1013.57
2018-02-23T04:34:12.850Z,1013.63
2018-02-23T04:35:22.318Z,1013.58
2018-02-23T04:36:32.321Z,1013.58
2018-02-23T04:37:41.791Z,1013.57
2018-02-23T04:38:51.785Z,1013.64
2018-02-23T04:40:01.510Z,1013.65
2018-02-23T04:41:11.234Z,1013.64
2018-02-23T04:42:20.727Z,1013.68
2018-02-23T04:43:30.460Z,1013.62
2018-02-23T04:44:40.471Z,1013.65
2018-02-23T04:45:50.218Z,1013.67
2018-02-23T04:46:59.939Z,1013.66
2018-02-23T04:48:09.939Z,1013.62
2018-02-23T04:49:19.379Z,1013.62
2018-02-23T04:50:28.845Z,1013.64
2018-02-23T04:51:38.858Z,1013.62
2018-02-23T04:52:48.629Z,1013.63
2018-02-23T04:53:58.641Z,1013.63
2018-02-23T04:55:07.878Z,1013.63
2018-02-23T04:56:17.908Z,1013.62
2018-02-23T04:57:27.899Z,1013.67
2018-02-23T04:58:37.083Z,1013.68
2018-02-23T04:59:46.624Z,1013.67
2018-02-23T05:00:56.081Z,1013.66
2018-02-23T05:02:05.569Z,1013.65
2018-02-23T05:03:15.365Z,1013.66
2018-02-23T05:04:25.476Z,1013.68
2018-02-23T05:05:35.217Z,1013.68
2018-02-23T05:06:44.957Z,1013.66
2018-02-23T05:07:54.976Z,1013.7
2018-02-23T05:09:04.716Z,1013.68
2018-02-23T05:10:14.171Z,1013.66
2018-02-23T05:11:24.164Z,1013.65
2018-02-23T05:12:33.645Z,1013.7
2018-02-23T05:13:43.369Z,1013.67
2018-02-23T05:14:52.594Z,1013.68
2018-02-23T05:16:02.334Z,1013.66
2018-02-23T05:17:12.062Z,1013.66
2018-02-23T05:18:22.048Z,1013.67
2018-02-23T05:19:31.288Z,1013.7
2018-02-23T05:20:41.301Z,1013.67
2018-02-23T05:21:51.024Z,1013.67
2018-02-23T05:23:00.754Z,1013.65
2018-02-23T05:24:10.799Z,1013.69
2018-02-23T05:25:20.250Z,1013.65
2018-02-23T05:26:30.051Z,1013.72
2018-02-23T05:27:39.807Z,1013.74
2018-02-23T05:28:49.821Z,1013.72
2018-02-23T05:29:59.803Z,1013.68
2018-02-23T05:31:09.303Z,1013.72
2018-02-23T05:32:18.760Z,1013.76
2018-02-23T05:33:28.547Z,1013.76
2018-02-23T05:34:38.521Z,1013.73
2018-02-23T05:35:48.019Z,1013.74
2018-02-23T05:36:58.003Z,1013.73
2018-02-23T05:38:07.724Z,1013.66
2018-02-23T05:39:17.488Z,1013.68
2018-02-23T05:40:27.212Z,1013.65
2018-02-23T05:41:36.685Z,1013.62
2018-02-23T05:42:46.141Z,1013.65
2018-02-23T05:43:55.625Z,1013.62
2018-02-23T05:45:05.114Z,1013.61
2018-02-23T05:46:14.755Z,1013.6
2018-02-23T05:47:23.942Z,1013.56
2018-02-23T05:48:33.130Z,1013.56
2018-02-23T05:49:42.576Z,1013.59
2018-02-23T05:50:52.094Z,1013.54
2018-02-23T05:52:02.083Z,1013.56
2018-02-23T05:53:11.843Z,1013.59
2018-02-23T05:54:21.914Z,1013.56
2018-02-23T05:55:31.372Z,1013.62
2018-02-23T05:56:40.568Z,1013.58
2018-02-23T05:57:50.081Z,1013.55
2018-02-23T05:59:00.109Z,1013.56
2018-02-23T06:00:10.118Z,1013.6
2018-02-23T06:01:20.122Z,1013.56
2018-02-23T06:02:29.574Z,1013.58
2018-02-23T06:03:39.292Z,1013.59
2018-02-23T06:04:48.775Z,1013.66
2018-02-23T06:05:58.266Z,1013.64
2018-02-23T06:07:07.722Z,1013.64
2018-02-23T06:08:17.470Z,1013.59
2018-02-23T06:09:27.010Z,1013.65
2018-02-23T06:10:36.769Z,1013.67
2018-02-23T06:11:46.750Z,1013.68
2018-02-23T06:12:56.561Z,1013.72
2018-02-23T06:14:06.297Z,1013.74
2018-02-23T06:15:15.342Z,1013.69
2018-02-23T06:16:25.065Z,1013.71
2018-02-23T06:17:35.086Z,1013.75
2018-02-23T06:18:44.533Z,1013.78
2018-02-23T06:19:53.449Z,1013.74
2018-02-23T06:21:03.016Z,1013.75
2018-02-23T06:22:12.842Z,1013.8
2018-02-23T06:23:22.557Z,1013.79
2018-02-23T06:24:32.622Z,1013.82
2018-02-23T06:25:42.070Z,1013.79
2018-02-23T06:26:51.299Z,1013.88
2018-02-23T06:28:00.753Z,1013.9
2018-02-23T06:29:10.750Z,1013.91
2018-02-23T06:30:20.476Z,1013.91
2018-02-23T06:31:30.282Z,1013.92
2018-02-23T06:32:39.678Z,1013.93
2018-02-23T06:33:49.139Z,1013.9
2018-02-23T06:34:59.164Z,1013.94
2018-02-23T06:36:08.398Z,1013.96
2018-02-23T06:37:18.374Z,1013.97
2018-02-23T06:38:28.135Z,1013.96
2018-02-23T06:39:38.268Z,1013.94
2018-02-23T06:40:48.250Z,1013.94
2018-02-23T06:41:58.059Z,1013.95
2018-02-23T06:43:08.071Z,1013.97
2018-02-23T06:44:18.106Z,1013.99
2018-02-23T06:45:27.620Z,1013.96
2018-02-23T06:46:37.391Z,1013.99
2018-02-23T06:47:46.848Z,1013.92
2018-02-23T06:48:56.567Z,1013.98
2018-02-23T06:50:06.587Z,1013.95
2018-02-23T06:51:16.573Z,1013.94
2018-02-23T06:52:26.332Z,1013.95
2018-02-23T06:53:36.328Z,1014.02
2018-02-23T06:54:45.245Z,1013.98
2018-02-23T06:55:55.410Z,1014.05
2018-02-23T06:57:04.089Z,1014
2018-02-23T06:58:13.813Z,1014.04
2018-02-23T06:59:23.525Z,1014.04
2018-02-23T07:00:33.083Z,1014.03
2018-02-23T07:01:42.570Z,1014.01
2018-02-23T07:02:52.016Z,1014.02
2018-02-23T07:04:01.507Z,1013.98
2018-02-23T07:05:11.329Z,1014.02
2018-02-23T07:06:21.330Z,1014.06
2018-02-23T07:07:31.330Z,1014
2018-02-23T07:08:40.442Z,1014.04
2018-02-23T07:09:49.899Z,1014.04
2018-02-23T07:10:59.365Z,1014
2018-02-23T07:12:09.373Z,1014.01
2018-02-23T07:13:18.383Z,1014.04
2018-02-23T07:14:27.946Z,1014.03
2018-02-23T07:15:37.755Z,1014.12
2018-02-23T07:16:47.017Z,1014.01
2018-02-23T07:17:56.377Z,1014.06
2018-02-23T07:19:05.604Z,1014.11
2018-02-23T07:20:14.859Z,1014.07
2018-02-23T07:21:24.673Z,1014.06
2018-02-23T07:22:34.255Z,1014.1
2018-02-23T07:23:43.576Z,1014.1
2018-02-23T07:24:53.131Z,1014.07
2018-02-23T07:26:02.859Z,1014.11
2018-02-23T07:27:12.388Z,1014.09
2018-02-23T07:28:21.362Z,1014.06
2018-02-23T07:29:31.206Z,1014.12
2018-02-23T07:30:40.702Z,1014.14
2018-02-23T07:31:50.260Z,1014.15
2018-02-23T07:32:59.804Z,1014.17
2018-02-23T07:34:09.366Z,1014.14
2018-02-23T07:35:19.115Z,1014.18
2018-02-23T07:36:28.632Z,1014.18
2018-02-23T07:37:38.416Z,1014.2
2018-02-23T07:38:47.872Z,1014.16
2018-02-23T07:39:57.144Z,1014.22
2018-02-23T07:41:06.360Z,1014.25
2018-02-23T07:42:16.151Z,1014.16
2018-02-23T07:43:25.684Z,1014.22
2018-02-23T07:44:35.401Z,1014.26
2018-02-23T07:45:45.014Z,1014.17
2018-02-23T07:46:55.004Z,1014.22
2018-02-23T07:48:04.241Z,1014.25
2018-02-23T07:49:13.481Z,1014.31
2018-02-23T07:50:23.605Z,1014.32
2018-02-23T07:51:33.362Z,1014.27
2018-02-23T07:52:42.068Z,1014.33
2018-02-23T07:53:51.263Z,1014.28
2018-02-23T07:55:00.993Z,1014.32
2018-02-23T07:56:10.735Z,1014.32
2018-02-23T07:57:20.940Z,1014.34
2018-02-23T07:58:30.393Z,1014.3
2018-02-23T07:59:40.239Z,1014.32
2018-02-23T08:00:49.729Z,1014.35
2018-02-23T08:01:59.722Z,1014.34
2018-02-23T08:03:09.918Z,1014.3
2018-02-23T08:04:19.672Z,1014.32
2018-02-23T08:05:29.419Z,1014.33
2018-02-23T08:06:38.350Z,1014.32
2018-02-23T08:07:47.829Z,1014.32
2018-02-23T08:08:57.444Z,1014.33
2018-02-23T08:10:07.389Z,1014.31
2018-02-23T08:11:17.064Z,1014.36
2018-02-23T08:12:26.801Z,1014.37
2018-02-23T08:13:36.261Z,1014.34
2018-02-23T08:14:45.725Z,1014.34
2018-02-23T08:15:55.765Z,1014.43
2018-02-23T08:17:05.217Z,1014.4
2018-02-23T08:18:14.411Z,1014.5
2018-02-23T08:19:24.126Z,1014.43
2018-02-23T08:20:33.850Z,1014.46
2018-02-23T08:21:43.308Z,1014.47
2018-02-23T08:22:53.187Z,1014.48
2018-02-23T08:24:02.635Z,1014.44
2018-02-23T08:25:12.146Z,1014.42
2018-02-23T08:26:21.341Z,1014.39
2018-02-23T08:27:31.001Z,1014.49
2018-02-23T08:28:40.577Z,1014.41
2018-02-23T08:29:50.434Z,1014.45
2018-02-23T08:30:59.620Z,1014.45
2018-02-23T08:32:09.077Z,1014.51
2018-02-23T08:33:18.813Z,1014.53
2018-02-23T08:34:28.275Z,1014.46
2018-02-23T08:35:38.120Z,1014.48
2018-02-23T08:36:47.361Z,1014.47
2018-02-23T08:37:56.282Z,1014.48
2018-02-23T08:39:05.473Z,1014.48
2018-02-23T08:40:14.929Z,1014.41
2018-02-23T08:41:24.137Z,1014.39
2018-02-23T08:42:33.598Z,1014.48
2018-02-23T08:43:43.404Z,1014.47
2018-02-23T08:44:53.191Z,1014.41
2018-02-23T08:46:02.705Z,1014.46
2018-02-23T08:47:12.294Z,1014.56
2018-02-23T08:48:21.440Z,1014.48
2018-02-23T08:49:31.161Z,1014.54
2018-02-23T08:50:41.025Z,1014.52
2018-02-23T08:51:50.596Z,1014.38
2018-02-23T08:53:00.110Z,1014.37
2018-02-23T08:54:09.296Z,1014.55
2018-02-23T08:55:18.519Z,1014.42
2018-02-23T08:56:28.505Z,1014.45
2018-02-23T08:57:38.018Z,1014.32
2018-02-23T08:58:47.517Z,1014.53
2018-02-23T08:59:56.975Z,1014.52
2018-02-23T09:01:06.758Z,1014.59
2018-02-23T09:02:16.179Z,1014.52
2018-02-23T09:03:25.961Z,1014.46
2018-02-23T09:04:35.948Z,1014.37
2018-02-23T09:05:45.263Z,1014.4
2018-02-23T09:06:55.075Z,1014.46
2018-02-23T09:08:04.823Z,1014.41
2018-02-23T09:09:14.770Z,1014.37
2018-02-23T09:10:24.347Z,1014.4
2018-02-23T09:11:33.952Z,1014.35
2018-02-23T09:12:44.102Z,1014.41
2018-02-23T09:13:53.813Z,1014.39
2018-02-23T09:15:03.543Z,1014.34
2018-02-23T09:16:13.174Z,1014.42
2018-02-23T09:17:22.710Z,1014.49
2018-02-23T09:18:31.695Z,1014.43
2018-02-23T09:19:41.373Z,1014.41
2018-02-23T09:20:50.694Z,1014.38
2018-02-23T09:22:00.685Z,1014.41
2018-02-23T09:23:10.871Z,1014.18
2018-02-23T09:24:21.550Z,1014.44
2018-02-23T09:25:31.574Z,1014.46
2018-02-23T09:26:41.022Z,1014.41
2018-02-23T09:27:50.891Z,1014.33
2018-02-23T09:29:00.690Z,1014.42
2018-02-23T09:30:10.479Z,1014.51
2018-02-23T09:31:19.694Z,1014.52
2018-02-23T09:32:29.331Z,1014.51
2018-02-23T09:33:39.065Z,1014.57
2018-02-23T09:34:48.516Z,1014.53
2018-02-23T09:35:58.548Z,1014.51
2018-02-23T09:37:08.274Z,1014.54
2018-02-23T09:38:17.997Z,1014.46
2018-02-23T09:39:27.982Z,1014.49
2018-02-23T09:40:37.724Z,1014.46
2018-02-23T09:41:47.458Z,1014.61
2018-02-23T09:42:57.451Z,1014.43
2018-02-23T09:44:06.915Z,1014.52
2018-02-23T09:45:16.432Z,1014.54
2018-02-23T09:46:25.935Z,1014.51
2018-02-23T09:47:35.291Z,1014.39
2018-02-23T09:48:44.818Z,1014.39
2018-02-23T09:49:54.153Z,1014.46
2018-02-23T09:51:03.620Z,1014.62
2018-02-23T09:52:13.076Z,1014.48
2018-02-23T09:53:22.544Z,1014.5
2018-02-23T09:54:32.288Z,1014.59
2018-02-23T09:55:41.473Z,1014.53
2018-02-23T09:56:50.931Z,1014.52
2018-02-23T09:58:00.116Z,1014.49
2018-02-23T09:59:09.578Z,1014.53
2018-02-23T10:00:19.302Z,1014.47
2018-02-23T10:01:29.307Z,1014.52
2018-02-23T10:02:38.864Z,1014.52
2018-02-23T10:03:48.614Z,1014.48
2018-02-23T10:04:57.876Z,1014.52
2018-02-23T10:06:07.289Z,1014.52
2018-02-23T10:07:16.491Z,1014.66
2018-02-23T10:08:26.482Z,1014.54
2018-02-23T10:09:35.991Z,1014.55
2018-02-23T10:10:45.504Z,1014.5
2018-02-23T10:11:55.435Z,1014.49
2018-02-23T10:13:04.621Z,1014.48
2018-02-23T10:14:13.559Z,1014.5
2018-02-23T10:15:23.083Z,1014.53
2018-02-23T10:16:32.835Z,1014.43
2018-02-23T10:17:42.839Z,1014.46
2018-02-23T10:18:52.236Z,1014.45
2018-02-23T10:20:02.062Z,1014.53
2018-02-23T10:21:10.982Z,1014.52
2018-02-23T10:22:20.397Z,1014.48
2018-02-23T10:23:30.209Z,1014.53
2018-02-23T10:24:40.169Z,1014.57
2018-02-23T10:25:49.377Z,1014.48
2018-02-23T10:26:59.169Z,1014.49
2018-02-23T10:28:08.770Z,1014.5
2018-02-23T10:29:18.512Z,1014.51
2018-02-23T10:30:28.272Z,1014.5
2018-02-23T10:31:37.734Z,1014.5
2018-02-23T10:32:47.431Z,1014.47
2018-02-23T10:33:56.899Z,1014.47
2018-02-23T10:35:06.435Z,1014.46
2018-02-23T10:36:16.420Z,1014.54
2018-02-23T10:37:25.877Z,1014.49
2018-02-23T10:38:35.691Z,1014.39
2018-02-23T10:39:45.531Z,1014.41
2018-02-23T10:40:55.249Z,1014.37
2018-02-23T10:42:04.714Z,1014.31
2018-02-23T10:43:14.452Z,1014.33
2018-02-23T10:44:23.904Z,1014.27
2018-02-23T10:45:33.904Z,1014.37
2018-02-23T10:46:43.849Z,1014.33
2018-02-23T10:47:53.973Z,1014.21
2018-02-23T10:49:03.162Z,1014.23
2018-02-23T10:50:12.895Z,1014.21
2018-02-23T10:51:22.384Z,1014.11
2018-02-23T10:52:31.608Z,1014.15
2018-02-23T10:53:41.341Z,1014.09
2018-02-23T10:54:50.266Z,1014.08
2018-02-23T10:55:59.731Z,1014.26
2018-02-23T10:57:09.057Z,1014.18
2018-02-23T10:58:18.806Z,1014.16
2018-02-23T10:59:28.820Z,1014.22
2018-02-23T11:00:38.372Z,1014.12
2018-02-23T11:01:47.976Z,1013.93
2018-02-23T11:02:57.737Z,1014.13
2018-02-23T11:04:07.500Z,1014.01
2018-02-23T11:05:17.247Z,1014.13
2018-02-23T11:06:27.311Z,1014.01
2018-02-23T11:07:37.038Z,1014.09
2018-02-23T11:08:46.343Z,1014.09
2018-02-23T11:09:55.830Z,1013.98
2018-02-23T11:11:05.633Z,1014.1
2018-02-23T11:12:14.895Z,1014.06
2018-02-23T11:13:24.360Z,1014.04
2018-02-23T11:14:33.678Z,1014.02
2018-02-23T11:15:43.449Z,1014.04
2018-02-23T11:16:53.221Z,1014.01
2018-02-23T11:18:03.256Z,1014.11
2018-02-23T11:19:13.065Z,1014.1
2018-02-23T11:20:23.084Z,1014.08
2018-02-23T11:21:33.134Z,1014.13
2018-02-23T11:22:43.164Z,1014.09
2018-02-23T11:23:52.774Z,1013.98
2018-02-23T11:25:02.768Z,1014.02
2018-02-23T11:26:11.993Z,1014.04
2018-02-23T11:27:21.479Z,1013.87
2018-02-23T11:28:31.426Z,1013.91
2018-02-23T11:29:40.353Z,1013.95
2018-02-23T11:30:50.104Z,1014.02
2018-02-23T11:31:59.821Z,1013.98
2018-02-23T11:33:09.565Z,1013.98
2018-02-23T11:34:19.318Z,1013.99
2018-02-23T11:35:29.369Z,1013.97
2018-02-23T11:36:39.139Z,1013.93
2018-02-23T11:37:48.603Z,1013.78
2018-02-23T11:38:58.362Z,1013.88
2018-02-23T11:40:07.583Z,1013.85
2018-02-23T11:41:17.109Z,1013.93
2018-02-23T11:42:26.591Z,1013.98
2018-02-23T11:43:36.338Z,1013.85
2018-02-23T11:44:46.194Z,1013.94
2018-02-23T11:45:55.994Z,1013.86
2018-02-23T11:47:06.026Z,1013.87
2018-02-23T11:48:15.930Z,1013.91
2018-02-23T11:49:25.668Z,1013.92
2018-02-23T11:50:35.731Z,1013.83
2018-02-23T11:51:44.963Z,1013.79
2018-02-23T11:52:54.740Z,1013.85
2018-02-23T11:54:04.265Z,1013.87
2018-02-23T11:55:14.002Z,1013.82
2018-02-23T11:56:23.459Z,1013.87
2018-02-23T11:57:33.262Z,1013.82
2018-02-23T11:58:42.484Z,1013.91
2018-02-23T11:59:51.957Z,1013.85
2018-02-23T12:01:01.162Z,1013.77
2018-02-23T12:02:10.619Z,1013.85
2018-02-23T12:03:20.667Z,1013.82
2018-02-23T12:04:30.388Z,1013.78
2018-02-23T12:05:39.930Z,1013.88
2018-02-23T12:06:49.956Z,1013.83
2018-02-23T12:07:59.202Z,1013.86
2018-02-23T12:09:09.205Z,1013.67
2018-02-23T12:10:19.216Z,1013.9
2018-02-23T12:11:28.728Z,1013.83
2018-02-23T12:12:38.184Z,1013.84
2018-02-23T12:13:47.925Z,1013.84
2018-02-23T12:14:57.686Z,1013.85
2018-02-23T12:16:06.613Z,1013.86
2018-02-23T12:17:16.559Z,1013.89
2018-02-23T12:18:26.387Z,1013.8
2018-02-23T12:19:35.101Z,1013.83
2018-02-23T12:20:44.827Z,1013.81
2018-02-23T12:21:54.052Z,1013.82
2018-02-23T12:23:04.056Z,1013.83
2018-02-23T12:24:12.981Z,1013.78
2018-02-23T12:25:22.719Z,1013.81
2018-02-23T12:26:32.724Z,1013.83
2018-02-23T12:27:43.112Z,1013.81
2018-02-23T12:28:52.602Z,1013.69
2018-02-23T12:30:02.328Z,1013.9
2018-02-23T12:31:12.070Z,1013.82
2018-02-23T12:32:21.624Z,1013.72
2018-02-23T12:33:31.123Z,1013.83
2018-02-23T12:34:40.887Z,1013.88
2018-02-23T12:35:50.349Z,1013.82
2018-02-23T12:37:00.381Z,1013.84
2018-02-23T12:38:09.857Z,1013.81
2018-02-23T12:39:19.347Z,1013.84
2018-02-23T12:40:29.065Z,1013.79
2018-02-23T12:41:38.426Z,1013.81
2018-02-23T12:42:48.200Z,1013.73
2018-02-23T12:43:58.218Z,1013.77
2018-02-23T12:45:07.703Z,1013.76
2018-02-23T12:46:17.771Z,1013.65
2018-02-23T12:47:27.500Z,1013.66
2018-02-23T12:48:37.338Z,1013.68
2018-02-23T12:49:46.995Z,1013.69
2018-02-23T12:50:56.477Z,1013.67
2018-02-23T12:52:05.773Z,1013.64
2018-02-23T12:53:14.961Z,1013.64
2018-02-23T12:54:24.426Z,1013.65
2018-02-23T12:55:34.176Z,1013.7
2018-02-23T12:56:43.368Z,1013.61
2018-02-23T12:57:53.384Z,1013.58
2018-02-23T12:59:02.930Z,1013.52
2018-02-23T13:00:12.710Z,1013.5
2018-02-23T13:01:21.651Z,1013.56
2018-02-23T13:02:31.377Z,1013.56
2018-02-23T13:03:41.395Z,1013.48
2018-02-23T13:04:51.336Z,1013.49
2018-02-23T13:06:00.797Z,1013.5
2018-02-23T13:07:10.554Z,1013.55
2018-02-23T13:08:20.039Z,1013.53
2018-02-23T13:09:29.874Z,1013.53
2018-02-23T13:10:39.356Z,1013.47
2018-02-23T13:11:48.811Z,1013.49
2018-02-23T13:12:58.634Z,1013.46
2018-02-23T13:14:08.699Z,1013.48
2018-02-23T13:15:18.451Z,1013.44
2018-02-23T13:16:28.250Z,1013.41
2018-02-23T13:17:38.299Z,1013.41
2018-02-23T13:18:47.831Z,1013.35
2018-02-23T13:19:57.583Z,1013.38
2018-02-23T13:21:07.717Z,1013.39
2018-02-23T13:22:17.176Z,1013.42
2018-02-23T13:23:26.658Z,1013.41
2018-02-23T13:24:35.602Z,1013.38
2018-02-23T13:25:45.118Z,1013.44
2018-02-23T13:26:54.917Z,1013.44
2018-02-23T13:28:04.143Z,1013.29
2018-02-23T13:29:13.387Z,1013.33
2018-02-23T13:30:22.843Z,1013.32
2018-02-23T13:31:32.615Z,1013.29
2018-02-23T13:32:42.008Z,1013.37
2018-02-23T13:33:51.255Z,1013.29
2018-02-23T13:35:00.711Z,1013.36
2018-02-23T13:36:09.902Z,1013.24
2018-02-23T13:37:19.647Z,1013.27
2018-02-23T13:38:29.396Z,1013.31
2018-02-23T13:39:39.160Z,1013.23
2018-02-23T13:40:48.708Z,1013.25
2018-02-23T13:41:58.639Z,1013.22
2018-02-23T13:43:08.366Z,1013.21
2018-02-23T13:44:18.371Z,1013.15
2018-02-23T13:45:27.954Z,1013.13
2018-02-23T13:46:37.971Z,1013.11
2018-02-23T13:47:47.743Z,1013.16
2018-02-23T13:48:57.297Z,1013.16
2018-02-23T13:50:07.040Z,1013.24
2018-02-23T13:51:16.786Z,1013.21
2018-02-23T13:52:26.016Z,1013.01
2018-02-23T13:53:35.856Z,1013.11
2018-02-23T13:54:45.876Z,1013.1
2018-02-23T13:55:55.379Z,1013.12
2018-02-23T13:57:04.831Z,1013.09
2018-02-23T13:58:14.872Z,1013.1
2018-02-23T13:59:24.863Z,1013.06
2018-02-23T14:00:34.948Z,1013.1
2018-02-23T14:01:44.164Z,1013.17
2018-02-23T14:02:53.915Z,1013.13
2018-02-23T14:04:03.660Z,1013.11
2018-02-23T14:05:13.417Z,1013.07
2018-02-23T14:06:22.956Z,1013.12